sensor_id;sensor_type;location;lat;lon;timestamp;pressure;altitude;pressure_sealevel;temperature;humidity
4326;BME280;58429;49.826;10.880;2023-04-01T00:00:14;97110;;;9.09;77.96
4326;BME280;58429;49.826;10.880;2023-04-01T00:01:14;97110;;;9.07;78.08
4326;BME280;58429;49.826;10.880;2023-04-01T00:02:14;97108;;;9.05;78.08
4326;BME280;58429;49.826;10.880;2023-04-01T00:03:14;97106;;;9.05;77.98
4326;BME280;58429;49.826;10.880;2023-04-01T00:04:14;97109;;;9.06;77.91
4326;BME280;58429;49.826;10.880;2023-04-01T00:05:15;97107;;;9.09;77.82
4326;BME280;58429;49.826;10.880;2023-04-01T00:06:15;97108;;;9.08;77.73
4326;BME280;58429;49.826;10.880;2023-04-01T00:07:14;97110;;;9.12;77.98
4326;BME280;58429;49.826;10.880;2023-04-01T00:08:15;97103;;;9.11;77.74
4326;BME280;58429;49.826;10.880;2023-04-01T00:09:14;97103;;;9.15;77.62
4326;BME280;58429;49.826;10.880;2023-04-01T00:10:14;97107;;;9.14;77.51
4326;BME280;58429;49.826;10.880;2023-04-01T00:11:15;97104;;;9.27;77.15
4326;BME280;58429;49.826;10.880;2023-04-01T00:12:14;97099;;;9.26;77.29
4326;BME280;58429;49.826;10.880;2023-04-01T00:13:14;97095;;;9.23;77.46
4326;BME280;58429;49.826;10.880;2023-04-01T00:14:14;97096;;;9.27;77.02
4326;BME280;58429;49.826;10.880;2023-04-01T00:15:14;97091;;;9.25;77.15
4326;BME280;58429;49.826;10.880;2023-04-01T00:16:14;97093;;;9.31;76.87
4326;BME280;58429;49.826;10.880;2023-04-01T00:17:14;97086;;;9.34;76.9
4326;BME280;58429;49.826;10.880;2023-04-01T00:18:14;97088;;;9.35;76.83
4326;BME280;58429;49.826;10.880;2023-04-01T00:19:14;97086;;;9.35;76.6
4326;BME280;58429;49.826;10.880;2023-04-01T00:20:14;97091;;;9.38;76.55
4326;BME280;58429;49.826;10.880;2023-04-01T00:21:15;97091;;;9.37;76.59
4326;BME280;58429;49.826;10.880;2023-04-01T00:22:15;97089;;;9.39;76.36
4326;BME280;58429;49.826;10.880;2023-04-01T00:23:15;97086;;;9.38;76.24
4326;BME280;58429;49.826;10.880;2023-04-01T00:24:14;97089;;;9.4;76.33
4326;BME280;58429;49.826;10.880;2023-04-01T00:25:14;97089;;;9.46;75.99
4326;BME280;58429;49.826;10.880;2023-04-01T00:26:15;97090;;;9.46;76.16
4326;BME280;58429;49.826;10.880;2023-04-01T00:27:15;97098;;;9.44;76.28
4326;BME280;58429;49.826;10.880;2023-04-01T00:28:14;97092;;;9.42;76.23
4326;BME280;58429;49.826;10.880;2023-04-01T00:29:14;97094;;;9.49;75.96
4326;BME280;58429;49.826;10.880;2023-04-01T00:30:14;97095;;;9.54;75.96
4326;BME280;58429;49.826;10.880;2023-04-01T00:31:14;97091;;;9.49;75.86
4326;BME280;58429;49.826;10.880;2023-04-01T00:32:14;97086;;;9.54;75.81
4326;BME280;58429;49.826;10.880;2023-04-01T00:33:15;97091;;;9.59;75.55
4326;BME280;58429;49.826;10.880;2023-04-01T00:34:14;97089;;;9.59;75.26
4326;BME280;58429;49.826;10.880;2023-04-01T00:35:14;97094;;;9.61;75.31
4326;BME280;58429;49.826;10.880;2023-04-01T00:36:15;97095;;;9.59;75.6
4326;BME280;58429;49.826;10.880;2023-04-01T00:37:14;97087;;;9.6;75.58
4326;BME280;58429;49.826;10.880;2023-04-01T00:38:15;97092;;;9.63;75.6
4326;BME280;58429;49.826;10.880;2023-04-01T00:39:15;97087;;;9.61;75.36
4326;BME280;58429;49.826;10.880;2023-04-01T00:40:21;97092;;;9.61;75.4
4326;BME280;58429;49.826;10.880;2023-04-01T00:41:15;97087;;;9.65;74.94
4326;BME280;58429;49.826;10.880;2023-04-01T00:42:14;97088;;;9.64;75.09
4326;BME280;58429;49.826;10.880;2023-04-01T00:43:16;97085;;;9.67;74.98
4326;BME280;58429;49.826;10.880;2023-04-01T00:44:17;97093;;;9.64;75.23
4326;BME280;58429;49.826;10.880;2023-04-01T00:45:28;97090;;;9.61;75.11
4326;BME280;58429;49.826;10.880;2023-04-01T00:46:14;97082;;;9.66;75.04
4326;BME280;58429;49.826;10.880;2023-04-01T00:47:14;97097;;;9.7;74.66
4326;BME280;58429;49.826;10.880;2023-04-01T00:48:16;97095;;;9.69;74.68
4326;BME280;58429;49.826;10.880;2023-04-01T00:49:15;97084;;;9.73;74.54
4326;BME280;58429;49.826;10.880;2023-04-01T00:50:15;97092;;;9.71;74.66
4326;BME280;58429;49.826;10.880;2023-04-01T00:51:16;97087;;;9.71;74.75
4326;BME280;58429;49.826;10.880;2023-04-01T00:52:15;97096;;;9.7;74.72
4326;BME280;58429;49.826;10.880;2023-04-01T00:53:14;97091;;;9.73;74.5
4326;BME280;58429;49.826;10.880;2023-04-01T00:54:15;97088;;;9.74;74.61
4326;BME280;58429;49.826;10.880;2023-04-01T00:55:14;97093;;;9.76;74.53
4326;BME280;58429;49.826;10.880;2023-04-01T00:56:15;97082;;;9.74;74.5
4326;BME280;58429;49.826;10.880;2023-04-01T00:57:15;97081;;;9.75;74.19
4326;BME280;58429;49.826;10.880;2023-04-01T00:58:15;97089;;;9.79;74.21
4326;BME280;58429;49.826;10.880;2023-04-01T00:59:16;97082;;;9.78;74.3
4326;BME280;58429;49.826;10.880;2023-04-01T01:00:15;97089;;;9.78;74.59
4326;BME280;58429;49.826;10.880;2023-04-01T01:01:14;97080;;;9.75;74.63
4326;BME280;58429;49.826;10.880;2023-04-01T01:02:15;97083;;;9.74;74.63
4326;BME280;58429;49.826;10.880;2023-04-01T01:03:14;97088;;;9.71;74.69
4326;BME280;58429;49.826;10.880;2023-04-01T01:04:23;97079;;;9.7;74.77
4326;BME280;58429;49.826;10.880;2023-04-01T01:05:15;97082;;;9.74;74.96
4326;BME280;58429;49.826;10.880;2023-04-01T01:06:18;97083;;;9.72;74.84
4326;BME280;58429;49.826;10.880;2023-04-01T01:07:17;97081;;;9.69;74.68
4326;BME280;58429;49.826;10.880;2023-04-01T01:08:15;97080;;;9.73;74.98
4326;BME280;58429;49.826;10.880;2023-04-01T01:09:20;97082;;;9.7;75.05
4326;BME280;58429;49.826;10.880;2023-04-01T01:10:15;97073;;;9.7;74.79
4326;BME280;58429;49.826;10.880;2023-04-01T01:11:15;97080;;;9.73;74.3
4326;BME280;58429;49.826;10.880;2023-04-01T01:12:16;97085;;;9.73;74.48
4326;BME280;58429;49.826;10.880;2023-04-01T01:13:16;97078;;;9.75;74.33
4326;BME280;58429;49.826;10.880;2023-04-01T01:14:19;97073;;;9.73;74.14
4326;BME280;58429;49.826;10.880;2023-04-01T01:15:16;97077;;;9.76;74.07
4326;BME280;58429;49.826;10.880;2023-04-01T01:16:16;97082;;;9.74;74.25
4326;BME280;58429;49.826;10.880;2023-04-01T01:17:17;97074;;;9.76;74.35
4326;BME280;58429;49.826;10.880;2023-04-01T01:18:16;97077;;;9.74;74.25
4326;BME280;58429;49.826;10.880;2023-04-01T01:19:19;97076;;;9.75;73.94
4326;BME280;58429;49.826;10.880;2023-04-01T01:20:21;97073;;;9.75;74.3
4326;BME280;58429;49.826;10.880;2023-04-01T01:21:21;97068;;;9.72;74.48
4326;BME280;58429;49.826;10.880;2023-04-01T01:22:20;97073;;;9.73;74.11
4326;BME280;58429;49.826;10.880;2023-04-01T01:23:19;97069;;;9.74;74.34
4326;BME280;58429;49.826;10.880;2023-04-01T01:24:22;97067;;;9.74;74.2
4326;BME280;58429;49.826;10.880;2023-04-01T01:25:18;97070;;;9.74;74.44
4326;BME280;58429;49.826;10.880;2023-04-01T01:26:21;97069;;;9.74;74.11
4326;BME280;58429;49.826;10.880;2023-04-01T01:27:16;97069;;;9.73;74.06
4326;BME280;58429;49.826;10.880;2023-04-01T01:28:19;97067;;;9.69;74.3
4326;BME280;58429;49.826;10.880;2023-04-01T01:29:22;97068;;;9.73;74.19
4326;BME280;58429;49.826;10.880;2023-04-01T01:30:20;97067;;;9.74;74.12
4326;BME280;58429;49.826;10.880;2023-04-01T01:31:16;97068;;;9.75;74.23
4326;BME280;58429;49.826;10.880;2023-04-01T01:32:17;97062;;;9.73;74.25
4326;BME280;58429;49.826;10.880;2023-04-01T01:33:25;97069;;;9.72;74.39
4326;BME280;58429;49.826;10.880;2023-04-01T01:34:15;97071;;;9.69;74.7
4326;BME280;58429;49.826;10.880;2023-04-01T01:35:16;97074;;;9.66;74.73
4326;BME280;58429;49.826;10.880;2023-04-01T01:36:15;97066;;;9.69;74.63
4326;BME280;58429;49.826;10.880;2023-04-01T01:37:15;97071;;;9.61;74.65
4326;BME280;58429;49.826;10.880;2023-04-01T01:38:15;97065;;;9.63;74.39
4326;BME280;58429;49.826;10.880;2023-04-01T01:39:15;97071;;;9.66;74.35
4326;BME280;58429;49.826;10.880;2023-04-01T01:40:15;97062;;;9.66;74.26
4326;BME280;58429;49.826;10.880;2023-04-01T01:41:15;97062;;;9.67;74.24
4326;BME280;58429;49.826;10.880;2023-04-01T01:42:15;97065;;;9.67;74.13
4326;BME280;58429;49.826;10.880;2023-04-01T01:43:15;97060;;;9.67;74.41
4326;BME280;58429;49.826;10.880;2023-04-01T01:44:15;97065;;;9.64;74.57
4326;BME280;58429;49.826;10.880;2023-04-01T01:45:15;97068;;;9.65;74.31
4326;BME280;58429;49.826;10.880;2023-04-01T01:46:16;97064;;;9.61;74.28
4326;BME280;58429;49.826;10.880;2023-04-01T01:47:15;97065;;;9.65;74.25
4326;BME280;58429;49.826;10.880;2023-04-01T01:48:15;97070;;;9.63;74.17
4326;BME280;58429;49.826;10.880;2023-04-01T01:49:15;97069;;;9.68;73.85
4326;BME280;58429;49.826;10.880;2023-04-01T01:50:15;97071;;;9.67;74.09
4326;BME280;58429;49.826;10.880;2023-04-01T01:51:15;97068;;;9.65;74.18
4326;BME280;58429;49.826;10.880;2023-04-01T01:52:16;97069;;;9.62;74.28
4326;BME280;58429;49.826;10.880;2023-04-01T01:53:15;97064;;;9.67;74
4326;BME280;58429;49.826;10.880;2023-04-01T01:54:15;97063;;;9.65;74.34
4326;BME280;58429;49.826;10.880;2023-04-01T01:55:23;97071;;;9.64;74.17
4326;BME280;58429;49.826;10.880;2023-04-01T01:56:15;97070;;;9.63;74.19
4326;BME280;58429;49.826;10.880;2023-04-01T01:57:15;97073;;;9.63;74.16
4326;BME280;58429;49.826;10.880;2023-04-01T01:58:16;97067;;;9.64;73.88
4326;BME280;58429;49.826;10.880;2023-04-01T01:59:15;97074;;;9.64;73.96
4326;BME280;58429;49.826;10.880;2023-04-01T02:00:15;97069;;;9.63;74.14
4326;BME280;58429;49.826;10.880;2023-04-01T02:01:16;97071;;;9.66;74.04
4326;BME280;58429;49.826;10.880;2023-04-01T02:02:15;97070;;;9.64;73.8
4326;BME280;58429;49.826;10.880;2023-04-01T02:03:15;97076;;;9.63;73.93
4326;BME280;58429;49.826;10.880;2023-04-01T02:04:15;97068;;;9.66;73.69
4326;BME280;58429;49.826;10.880;2023-04-01T02:05:16;97068;;;9.64;73.83
4326;BME280;58429;49.826;10.880;2023-04-01T02:06:15;97059;;;9.66;74.18
4326;BME280;58429;49.826;10.880;2023-04-01T02:07:16;97067;;;9.64;73.98
4326;BME280;58429;49.826;10.880;2023-04-01T02:08:15;97067;;;9.65;74.31
4326;BME280;58429;49.826;10.880;2023-04-01T02:09:15;97069;;;9.65;73.84
4326;BME280;58429;49.826;10.880;2023-04-01T02:10:15;97070;;;9.63;73.98
4326;BME280;58429;49.826;10.880;2023-04-01T02:11:16;97072;;;9.66;73.95
4326;BME280;58429;49.826;10.880;2023-04-01T02:12:15;97072;;;9.66;74.03
4326;BME280;58429;49.826;10.880;2023-04-01T02:13:16;97071;;;9.61;73.95
4326;BME280;58429;49.826;10.880;2023-04-01T02:14:15;97065;;;9.65;74.12
4326;BME280;58429;49.826;10.880;2023-04-01T02:15:15;97063;;;9.63;74.04
4326;BME280;58429;49.826;10.880;2023-04-01T02:16:16;97059;;;9.58;74.31
4326;BME280;58429;49.826;10.880;2023-04-01T02:17:15;97059;;;9.59;74.22
4326;BME280;58429;49.826;10.880;2023-04-01T02:18:15;97058;;;9.57;73.73
4326;BME280;58429;49.826;10.880;2023-04-01T02:19:15;97057;;;9.63;73.46
4326;BME280;58429;49.826;10.880;2023-04-01T02:20:15;97055;;;9.65;73.26
4326;BME280;58429;49.826;10.880;2023-04-01T02:21:15;97059;;;9.6;73.51
4326;BME280;58429;49.826;10.880;2023-04-01T02:22:16;97059;;;9.63;73.43
4326;BME280;58429;49.826;10.880;2023-04-01T02:23:15;97061;;;9.64;73.07
4326;BME280;58429;49.826;10.880;2023-04-01T02:24:15;97063;;;9.61;73.22
4326;BME280;58429;49.826;10.880;2023-04-01T02:25:16;97057;;;9.66;72.78
4326;BME280;58429;49.826;10.880;2023-04-01T02:26:15;97060;;;9.65;72.86
4326;BME280;58429;49.826;10.880;2023-04-01T02:27:15;97059;;;9.65;72.78
4326;BME280;58429;49.826;10.880;2023-04-01T02:28:16;97055;;;9.63;73.22
4326;BME280;58429;49.826;10.880;2023-04-01T02:29:15;97052;;;9.66;73.32
4326;BME280;58429;49.826;10.880;2023-04-01T02:30:15;97055;;;9.65;73.31
4326;BME280;58429;49.826;10.880;2023-04-01T02:31:15;97052;;;9.63;73.2
4326;BME280;58429;49.826;10.880;2023-04-01T02:32:15;97062;;;9.59;73.36
4326;BME280;58429;49.826;10.880;2023-04-01T02:33:15;97050;;;9.58;73.06
4326;BME280;58429;49.826;10.880;2023-04-01T02:34:15;97057;;;9.58;72.62
4326;BME280;58429;49.826;10.880;2023-04-01T02:35:15;97062;;;9.6;72.98
4326;BME280;58429;49.826;10.880;2023-04-01T02:36:15;97061;;;9.57;73.06
4326;BME280;58429;49.826;10.880;2023-04-01T02:37:15;97057;;;9.54;73.01
4326;BME280;58429;49.826;10.880;2023-04-01T02:38:15;97054;;;9.57;73.09
4326;BME280;58429;49.826;10.880;2023-04-01T02:39:15;97062;;;9.53;73.1
4326;BME280;58429;49.826;10.880;2023-04-01T02:40:15;97058;;;9.54;72.89
4326;BME280;58429;49.826;10.880;2023-04-01T02:41:15;97062;;;9.49;73.17
4326;BME280;58429;49.826;10.880;2023-04-01T02:42:15;97054;;;9.48;73.1
4326;BME280;58429;49.826;10.880;2023-04-01T02:43:15;97061;;;9.45;73.12
4326;BME280;58429;49.826;10.880;2023-04-01T02:44:15;97068;;;9.44;72.99
4326;BME280;58429;49.826;10.880;2023-04-01T02:45:15;97057;;;9.43;73.07
4326;BME280;58429;49.826;10.880;2023-04-01T02:46:15;97061;;;9.42;73.02
4326;BME280;58429;49.826;10.880;2023-04-01T02:47:15;97071;;;9.47;72.85
4326;BME280;58429;49.826;10.880;2023-04-01T02:48:15;97068;;;9.45;73.05
4326;BME280;58429;49.826;10.880;2023-04-01T02:49:15;97069;;;9.43;73.19
4326;BME280;58429;49.826;10.880;2023-04-01T02:50:15;97072;;;9.42;73
4326;BME280;58429;49.826;10.880;2023-04-01T02:51:15;97065;;;9.41;73.19
4326;BME280;58429;49.826;10.880;2023-04-01T02:52:15;97070;;;9.4;73.13
4326;BME280;58429;49.826;10.880;2023-04-01T02:53:15;97069;;;9.4;72.71
4326;BME280;58429;49.826;10.880;2023-04-01T02:54:15;97077;;;9.43;72.8
4326;BME280;58429;49.826;10.880;2023-04-01T02:55:15;97077;;;9.43;72.97
4326;BME280;58429;49.826;10.880;2023-04-01T02:56:15;97075;;;9.45;72.72
4326;BME280;58429;49.826;10.880;2023-04-01T02:57:15;97073;;;9.46;72.88
4326;BME280;58429;49.826;10.880;2023-04-01T02:58:15;97070;;;9.43;73.15
4326;BME280;58429;49.826;10.880;2023-04-01T02:59:15;97074;;;9.42;73.12
4326;BME280;58429;49.826;10.880;2023-04-01T03:00:15;97065;;;9.42;73.09
4326;BME280;58429;49.826;10.880;2023-04-01T03:01:15;97064;;;9.45;72.9
4326;BME280;58429;49.826;10.880;2023-04-01T03:02:15;97076;;;9.47;72.7
4326;BME280;58429;49.826;10.880;2023-04-01T03:03:15;97070;;;9.47;72.91
4326;BME280;58429;49.826;10.880;2023-04-01T03:04:15;97079;;;9.47;73
4326;BME280;58429;49.826;10.880;2023-04-01T03:05:15;97074;;;9.44;73.01
4326;BME280;58429;49.826;10.880;2023-04-01T03:06:15;97080;;;9.48;73.2
4326;BME280;58429;49.826;10.880;2023-04-01T03:07:15;97080;;;9.45;73.47
4326;BME280;58429;49.826;10.880;2023-04-01T03:08:15;97077;;;9.42;73.4
4326;BME280;58429;49.826;10.880;2023-04-01T03:09:15;97079;;;9.44;73.3
4326;BME280;58429;49.826;10.880;2023-04-01T03:10:15;97076;;;9.46;72.99
4326;BME280;58429;49.826;10.880;2023-04-01T03:11:15;97076;;;9.45;73.08
4326;BME280;58429;49.826;10.880;2023-04-01T03:12:15;97075;;;9.46;73.37
4326;BME280;58429;49.826;10.880;2023-04-01T03:13:15;97065;;;9.46;72.78
4326;BME280;58429;49.826;10.880;2023-04-01T03:14:15;97074;;;9.47;73.02
4326;BME280;58429;49.826;10.880;2023-04-01T03:15:15;97080;;;9.51;73.06
4326;BME280;58429;49.826;10.880;2023-04-01T03:16:15;97074;;;9.52;73.29
4326;BME280;58429;49.826;10.880;2023-04-01T03:17:15;97076;;;9.49;73.2
4326;BME280;58429;49.826;10.880;2023-04-01T03:18:15;97075;;;9.49;73.13
4326;BME280;58429;49.826;10.880;2023-04-01T03:19:15;97068;;;9.53;72.86
4326;BME280;58429;49.826;10.880;2023-04-01T03:20:15;97069;;;9.58;72.83
4326;BME280;58429;49.826;10.880;2023-04-01T03:21:15;97074;;;9.54;73.05
4326;BME280;58429;49.826;10.880;2023-04-01T03:22:15;97079;;;9.55;73.25
4326;BME280;58429;49.826;10.880;2023-04-01T03:23:15;97073;;;9.55;73.44
4326;BME280;58429;49.826;10.880;2023-04-01T03:24:15;97072;;;9.52;73.08
4326;BME280;58429;49.826;10.880;2023-04-01T03:25:15;97079;;;9.5;73.1
4326;BME280;58429;49.826;10.880;2023-04-01T03:26:15;97075;;;9.52;73.34
4326;BME280;58429;49.826;10.880;2023-04-01T03:27:15;97076;;;9.51;72.97
4326;BME280;58429;49.826;10.880;2023-04-01T03:28:15;97078;;;9.49;73.03
4326;BME280;58429;49.826;10.880;2023-04-01T03:29:15;97082;;;9.54;73.26
4326;BME280;58429;49.826;10.880;2023-04-01T03:30:15;97085;;;9.57;73.43
4326;BME280;58429;49.826;10.880;2023-04-01T03:31:15;97090;;;9.47;73.65
4326;BME280;58429;49.826;10.880;2023-04-01T03:32:15;97090;;;9.51;73.3
4326;BME280;58429;49.826;10.880;2023-04-01T03:33:15;97087;;;9.5;73.22
4326;BME280;58429;49.826;10.880;2023-04-01T03:34:15;97079;;;9.5;73.36
4326;BME280;58429;49.826;10.880;2023-04-01T03:35:15;97083;;;9.49;73.33
4326;BME280;58429;49.826;10.880;2023-04-01T03:36:15;97082;;;9.5;73.64
4326;BME280;58429;49.826;10.880;2023-04-01T03:37:15;97081;;;9.5;73.69
4326;BME280;58429;49.826;10.880;2023-04-01T03:38:15;97091;;;9.46;73.71
4326;BME280;58429;49.826;10.880;2023-04-01T03:39:15;97081;;;9.43;73.5
4326;BME280;58429;49.826;10.880;2023-04-01T03:40:15;97078;;;9.47;73.2
4326;BME280;58429;49.826;10.880;2023-04-01T03:41:15;97088;;;9.48;73.29
4326;BME280;58429;49.826;10.880;2023-04-01T03:42:15;97080;;;9.49;73.47
4326;BME280;58429;49.826;10.880;2023-04-01T03:43:15;97083;;;9.47;73.53
4326;BME280;58429;49.826;10.880;2023-04-01T03:44:15;97083;;;9.47;73.67
4326;BME280;58429;49.826;10.880;2023-04-01T03:45:15;97080;;;9.48;73.73
4326;BME280;58429;49.826;10.880;2023-04-01T03:46:16;97089;;;9.47;73.2
4326;BME280;58429;49.826;10.880;2023-04-01T03:47:15;97081;;;9.48;73.22
4326;BME280;58429;49.826;10.880;2023-04-01T03:48:15;97089;;;9.47;73.21
4326;BME280;58429;49.826;10.880;2023-04-01T03:49:15;97086;;;9.47;73.44
4326;BME280;58429;49.826;10.880;2023-04-01T03:50:15;97084;;;9.53;73.31
4326;BME280;58429;49.826;10.880;2023-04-01T03:51:15;97087;;;9.51;73.32
4326;BME280;58429;49.826;10.880;2023-04-01T03:52:15;97092;;;9.52;73.19
4326;BME280;58429;49.826;10.880;2023-04-01T03:53:15;97088;;;9.54;73.41
4326;BME280;58429;49.826;10.880;2023-04-01T03:54:15;97089;;;9.45;73.25
4326;BME280;58429;49.826;10.880;2023-04-01T03:55:15;97089;;;9.46;73.15
4326;BME280;58429;49.826;10.880;2023-04-01T03:56:15;97097;;;9.5;73.22
4326;BME280;58429;49.826;10.880;2023-04-01T03:57:15;97093;;;9.48;73.15
4326;BME280;58429;49.826;10.880;2023-04-01T03:58:15;97087;;;9.47;72.94
4326;BME280;58429;49.826;10.880;2023-04-01T03:59:15;97089;;;9.54;73.08
4326;BME280;58429;49.826;10.880;2023-04-01T04:00:15;97086;;;9.52;73.01
4326;BME280;58429;49.826;10.880;2023-04-01T04:01:16;97092;;;9.49;73.26
4326;BME280;58429;49.826;10.880;2023-04-01T04:02:15;97085;;;9.49;73.07
4326;BME280;58429;49.826;10.880;2023-04-01T04:03:15;97084;;;9.5;72.77
4326;BME280;58429;49.826;10.880;2023-04-01T04:04:15;97083;;;9.54;72.72
4326;BME280;58429;49.826;10.880;2023-04-01T04:05:15;97086;;;9.56;72.93
4326;BME280;58429;49.826;10.880;2023-04-01T04:06:15;97088;;;9.54;72.78
4326;BME280;58429;49.826;10.880;2023-04-01T04:07:15;97091;;;9.54;72.49
4326;BME280;58429;49.826;10.880;2023-04-01T04:08:15;97094;;;9.56;72.78
4326;BME280;58429;49.826;10.880;2023-04-01T04:09:15;97097;;;9.49;72.78
4326;BME280;58429;49.826;10.880;2023-04-01T04:10:15;97092;;;9.55;72.81
4326;BME280;58429;49.826;10.880;2023-04-01T04:11:15;97096;;;9.56;72.74
4326;BME280;58429;49.826;10.880;2023-04-01T04:12:15;97092;;;9.55;72.9
4326;BME280;58429;49.826;10.880;2023-04-01T04:13:15;97092;;;9.5;72.82
4326;BME280;58429;49.826;10.880;2023-04-01T04:14:15;97088;;;9.55;72.7
4326;BME280;58429;49.826;10.880;2023-04-01T04:15:15;97093;;;9.54;72.76
4326;BME280;58429;49.826;10.880;2023-04-01T04:16:15;97095;;;9.5;72.47
4326;BME280;58429;49.826;10.880;2023-04-01T04:17:15;97091;;;9.55;72.72
4326;BME280;58429;49.826;10.880;2023-04-01T04:18:15;97090;;;9.54;72.7
4326;BME280;58429;49.826;10.880;2023-04-01T04:19:15;97094;;;9.54;72.36
4326;BME280;58429;49.826;10.880;2023-04-01T04:20:15;97093;;;9.54;72.45
4326;BME280;58429;49.826;10.880;2023-04-01T04:21:15;97096;;;9.55;72.54
4326;BME280;58429;49.826;10.880;2023-04-01T04:22:15;97090;;;9.58;72.59
4326;BME280;58429;49.826;10.880;2023-04-01T04:23:15;97094;;;9.57;72.72
4326;BME280;58429;49.826;10.880;2023-04-01T04:24:15;97084;;;9.53;72.94
4326;BME280;58429;49.826;10.880;2023-04-01T04:25:15;97094;;;9.51;72.71
4326;BME280;58429;49.826;10.880;2023-04-01T04:26:15;97100;;;9.53;72.38
4326;BME280;58429;49.826;10.880;2023-04-01T04:27:15;97099;;;9.53;72.61
4326;BME280;58429;49.826;10.880;2023-04-01T04:28:15;97094;;;9.52;72.63
4326;BME280;58429;49.826;10.880;2023-04-01T04:29:15;97089;;;9.52;72.59
4326;BME280;58429;49.826;10.880;2023-04-01T04:30:15;97094;;;9.54;72.05
4326;BME280;58429;49.826;10.880;2023-04-01T04:31:18;97094;;;9.55;72.44
4326;BME280;58429;49.826;10.880;2023-04-01T04:32:15;97099;;;9.53;72.55
4326;BME280;58429;49.826;10.880;2023-04-01T04:33:15;97097;;;9.5;72.44
4326;BME280;58429;49.826;10.880;2023-04-01T04:34:15;97107;;;9.53;72.68
4326;BME280;58429;49.826;10.880;2023-04-01T04:35:15;97103;;;9.48;72.72
4326;BME280;58429;49.826;10.880;2023-04-01T04:36:15;97106;;;9.54;72.81
4326;BME280;58429;49.826;10.880;2023-04-01T04:37:15;97111;;;9.49;72.83
4326;BME280;58429;49.826;10.880;2023-04-01T04:38:15;97111;;;9.51;72.49
4326;BME280;58429;49.826;10.880;2023-04-01T04:39:15;97106;;;9.5;72.57
4326;BME280;58429;49.826;10.880;2023-04-01T04:40:15;97107;;;9.49;72.55
4326;BME280;58429;49.826;10.880;2023-04-01T04:41:16;97118;;;9.52;72.47
4326;BME280;58429;49.826;10.880;2023-04-01T04:42:15;97110;;;9.53;72.67
4326;BME280;58429;49.826;10.880;2023-04-01T04:43:15;97110;;;9.51;72.88
4326;BME280;58429;49.826;10.880;2023-04-01T04:44:15;97106;;;9.51;72.79
4326;BME280;58429;49.826;10.880;2023-04-01T04:45:15;97110;;;9.48;72.58
4326;BME280;58429;49.826;10.880;2023-04-01T04:46:15;97113;;;9.52;72.72
4326;BME280;58429;49.826;10.880;2023-04-01T04:47:15;97112;;;9.46;72.68
4326;BME280;58429;49.826;10.880;2023-04-01T04:48:15;97110;;;9.48;72.77
4326;BME280;58429;49.826;10.880;2023-04-01T04:49:15;97110;;;9.46;72.9
4326;BME280;58429;49.826;10.880;2023-04-01T04:50:15;97115;;;9.48;73.15
4326;BME280;58429;49.826;10.880;2023-04-01T04:51:15;97112;;;9.47;73.04
4326;BME280;58429;49.826;10.880;2023-04-01T04:52:15;97117;;;9.46;72.93
4326;BME280;58429;49.826;10.880;2023-04-01T04:53:15;97114;;;9.48;72.78
4326;BME280;58429;49.826;10.880;2023-04-01T04:54:15;97115;;;9.48;72.67
4326;BME280;58429;49.826;10.880;2023-04-01T04:55:15;97110;;;9.46;72.76
4326;BME280;58429;49.826;10.880;2023-04-01T04:56:17;97115;;;9.5;72.94
4326;BME280;58429;49.826;10.880;2023-04-01T04:57:15;97112;;;9.44;72.97
4326;BME280;58429;49.826;10.880;2023-04-01T04:58:15;97111;;;9.43;73.2
4326;BME280;58429;49.826;10.880;2023-04-01T04:59:15;97114;;;9.43;73.13
4326;BME280;58429;49.826;10.880;2023-04-01T05:00:15;97112;;;9.41;73.21
4326;BME280;58429;49.826;10.880;2023-04-01T05:01:16;97100;;;9.41;73.21
4326;BME280;58429;49.826;10.880;2023-04-01T05:02:15;97102;;;9.39;73.14
4326;BME280;58429;49.826;10.880;2023-04-01T05:03:15;97104;;;9.41;73.05
4326;BME280;58429;49.826;10.880;2023-04-01T05:04:15;97114;;;9.39;73.23
4326;BME280;58429;49.826;10.880;2023-04-01T05:05:15;97108;;;9.39;73.37
4326;BME280;58429;49.826;10.880;2023-04-01T05:06:16;97109;;;9.4;73.51
4326;BME280;58429;49.826;10.880;2023-04-01T05:07:15;97108;;;9.37;73.59
4326;BME280;58429;49.826;10.880;2023-04-01T05:08:15;97107;;;9.38;73.54
4326;BME280;58429;49.826;10.880;2023-04-01T05:09:15;97105;;;9.36;73.54
4326;BME280;58429;49.826;10.880;2023-04-01T05:10:15;97114;;;9.36;73.62
4326;BME280;58429;49.826;10.880;2023-04-01T05:11:16;97105;;;9.35;73.56
4326;BME280;58429;49.826;10.880;2023-04-01T05:12:15;97103;;;9.35;73.71
4326;BME280;58429;49.826;10.880;2023-04-01T05:13:15;97107;;;9.35;73.76
4326;BME280;58429;49.826;10.880;2023-04-01T05:14:15;97107;;;9.36;73.38
4326;BME280;58429;49.826;10.880;2023-04-01T05:15:15;97121;;;9.36;73.3
4326;BME280;58429;49.826;10.880;2023-04-01T05:16:16;97110;;;9.38;73.13
4326;BME280;58429;49.826;10.880;2023-04-01T05:17:15;97111;;;9.35;73.33
4326;BME280;58429;49.826;10.880;2023-04-01T05:18:15;97109;;;9.36;73.22
4326;BME280;58429;49.826;10.880;2023-04-01T05:19:15;97112;;;9.37;73.33
4326;BME280;58429;49.826;10.880;2023-04-01T05:20:15;97112;;;9.39;73.51
4326;BME280;58429;49.826;10.880;2023-04-01T05:21:15;97110;;;9.37;73.7
4326;BME280;58429;49.826;10.880;2023-04-01T05:22:15;97116;;;9.4;73.43
4326;BME280;58429;49.826;10.880;2023-04-01T05:23:15;97113;;;9.36;73.41
4326;BME280;58429;49.826;10.880;2023-04-01T05:24:15;97116;;;9.35;73.55
4326;BME280;58429;49.826;10.880;2023-04-01T05:25:15;97112;;;9.36;73.69
4326;BME280;58429;49.826;10.880;2023-04-01T05:26:15;97115;;;9.38;73.59
4326;BME280;58429;49.826;10.880;2023-04-01T05:27:15;97119;;;9.38;73.55
4326;BME280;58429;49.826;10.880;2023-04-01T05:28:15;97117;;;9.35;73.4
4326;BME280;58429;49.826;10.880;2023-04-01T05:29:15;97111;;;9.37;73.54
4326;BME280;58429;49.826;10.880;2023-04-01T05:30:15;97110;;;9.37;73.74
4326;BME280;58429;49.826;10.880;2023-04-01T05:31:15;97114;;;9.35;73.94
4326;BME280;58429;49.826;10.880;2023-04-01T05:32:15;97122;;;9.36;73.85
4326;BME280;58429;49.826;10.880;2023-04-01T05:33:15;97120;;;9.35;74.23
4326;BME280;58429;49.826;10.880;2023-04-01T05:34:15;97114;;;9.35;73.83
4326;BME280;58429;49.826;10.880;2023-04-01T05:35:15;97118;;;9.35;74.01
4326;BME280;58429;49.826;10.880;2023-04-01T05:36:16;97110;;;9.36;74.22